Time;durP1;ratioP1;P1;durP2;ratioP2;P2;SDS_P1;SDS_P2;PMS_P1;PMS_P2;Temp;Humidity;BMP_temperature;BMP_pressure;BME280_temperature;BME280_humidity;BME280_pressure;Samples;Min_cycle;Max_cycle;Signal;HPM_P1;HPM_P2
2024/01/20 00:00:03;;;;;;;10.30;6.70;;;;;;;-147.86;100.00;-17609.17;104827;1271;70899;-52
2024/01/20 00:02:32;;;;;;;17.20;9.60;;;;;;;-147.86;100.00;-17609.17;104843;1278;64358;-50
2024/01/20 00:05:00;;;;;;;19.30;9.60;;;;;;;-147.86;100.00;-17609.17;104844;1269;71354;-51
2024/01/20 00:07:28;;;;;;;14.80;6.90;;;;;;;-147.86;100.00;-17609.17;105174;1269;59697;-50
2024/01/20 00:09:56;;;;;;;14.30;8.00;;;;;;;-147.86;100.00;-17609.17;105196;1269;59653;-53
2024/01/20 00:12:24;;;;;;;14.80;8.70;;;;;;;-147.86;100.00;-17609.17;105162;1263;71896;-52
2024/01/20 00:14:52;;;;;;;12.30;6.10;;;;;;;-147.86;100.00;-17609.17;105170;1266;63170;-54
2024/01/20 00:17:20;;;;;;;13.00;8.10;;;;;;;-147.86;100.00;-17609.17;105149;1267;71362;-49
2024/01/20 00:19:54;;;;;;;14.00;8.50;;;;;;;-147.86;100.00;-17609.17;105146;1267;59750;-51
2024/01/20 00:22:23;;;;;;;8.90;5.10;;;;;;;-147.86;100.00;-17609.17;105245;1266;59660;-53
2024/01/20 00:24:51;;;;;;;10.90;7.90;;;;;;;-147.86;100.00;-17609.17;105176;1264;71844;-52
2024/01/20 00:27:20;;;;;;;9.70;6.70;;;;;;;-147.86;100.00;-17609.17;105206;1267;63185;-50
2024/01/20 00:29:48;;;;;;;12.10;5.90;;;;;;;-147.86;100.00;-17609.17;105156;1268;71535;-51
2024/01/20 00:32:16;;;;;;;11.20;6.50;;;;;;;-147.86;100.00;-17609.17;105213;1264;59707;-54
2024/01/20 00:34:44;;;;;;;12.50;7.80;;;;;;;-147.86;100.00;-17609.17;105197;1263;59598;-49
2024/01/20 00:37:33;;;;;;;9.60;5.80;;;;;;;-147.86;100.00;-17609.17;105178;1264;71747;-52
2024/01/20 00:40:02;;;;;;;13.70;7.90;;;;;;;-147.86;100.00;-17609.17;105195;1267;64403;-54
2024/01/20 00:42:31;;;;;;;11.70;7.50;;;;;;;-147.86;100.00;-17609.17;105201;1264;72634;-51
2024/01/20 00:44:59;;;;;;;10.30;6.50;;;;;;;-147.86;100.00;-17609.17;105167;1266;59846;-52
2024/01/20 00:47:27;;;;;;;11.40;6.60;;;;;;;-147.86;100.00;-17609.17;105203;1263;59625;-51
2024/01/20 00:49:55;;;;;;;9.10;4.60;;;;;;;-147.86;100.00;-17609.17;105195;1262;71780;-53
2024/01/20 00:52:23;;;;;;;11.20;7.30;;;;;;;-147.86;100.00;-17609.17;105158;1262;62183;-51
2024/01/20 00:54:51;;;;;;;11.00;7.10;;;;;;;-147.86;100.00;-17609.17;105176;1269;71439;-54
2024/01/20 00:57:19;;;;;;;14.40;6.50;;;;;;;-147.86;100.00;-17609.17;105172;1263;60007;-53
2024/01/20 00:59:47;;;;;;;11.30;7.30;;;;;;;-147.86;100.00;-17609.17;105184;1262;59751;-54
2024/01/20 01:02:16;;;;;;;11.90;6.90;;;;;;;-147.86;100.00;-17609.17;105185;1267;73078;-49
2024/01/20 01:04:45;;;;;;;8.00;5.60;;;;;;;-147.86;100.00;-17609.17;105221;1264;63188;-54
2024/01/20 01:07:13;;;;;;;11.60;6.00;;;;;;;-147.86;100.00;-17609.17;105465;1263;71339;-52
2024/01/20 01:09:42;;;;;;;6.20;4.10;;;;;;;-147.86;100.00;-17609.17;105443;1264;59761;-55
2024/01/20 01:46:40;;;;;;;;;;;;;;;-147.86;100.00;-17609.17;102916;1288;599993;-48
2024/01/20 01:49:08;;;;;;;4.60;4.10;;;;;;;-147.86;100.00;-17609.17;104811;1271;60806;-48
2024/01/20 01:51:36;;;;;;;8.10;4.00;;;;;;;-147.86;100.00;-17609.17;104773;1271;59389;-47
2024/01/20 01:54:04;;;;;;;5.70;4.10;;;;;;;-147.86;100.00;-17609.17;104760;1271;70295;-47
2024/01/20 01:56:31;;;;;;;7.40;4.00;;;;;;;-147.86;100.00;-17609.17;104860;1271;65150;-49
2024/01/20 01:59:00;;;;;;;7.20;3.90;;;;;;;-147.86;100.00;-17609.17;104742;1271;71073;-48
2024/01/20 02:01:28;;;;;;;6.00;4.10;;;;;;;-147.86;100.00;-17609.17;104771;1266;196714;-47
2024/01/20 02:03:55;;;;;;;5.70;4.20;;;;;;;-147.86;100.00;-17609.17;104880;1266;59237;-47
2024/01/20 02:06:23;;;;;;;4.20;2.80;;;;;;;-147.86;100.00;-17609.17;104916;1264;70977;-48
2024/01/20 02:08:51;;;;;;;5.40;3.60;;;;;;;-147.86;100.00;-17609.17;104955;1269;63952;-48
2024/01/20 02:11:18;;;;;;;9.20;3.70;;;;;;;-147.86;100.00;-17609.17;104882;1264;71720;-48
2024/01/20 02:13:46;;;;;;;4.40;3.20;;;;;;;-147.86;100.00;-17609.17;104763;1274;59879;-47
2024/01/20 02:16:14;;;;;;;3.90;3.00;;;;;;;-147.86;100.00;-17609.17;104893;1268;59660;-48
2024/01/20 02:18:41;;;;;;;5.40;3.40;;;;;;;-147.86;100.00;-17609.17;104856;1266;72063;-47
2024/01/20 02:21:09;;;;;;;4.30;3.10;;;;;;;-147.86;100.00;-17609.17;104888;1268;63960;-47
2024/01/20 02:23:39;;;;;;;4.40;2.40;;;;;;;-147.86;100.00;-17609.17;104849;1268;71381;-47
2024/01/20 02:26:07;;;;;;;4.60;3.00;;;;;;;-147.86;100.00;-17609.17;104913;1268;60886;-46
2024/01/20 02:28:35;;;;;;;5.20;2.70;;;;;;;-147.86;100.00;-17609.17;104944;1268;59771;-47
2024/01/20 02:31:03;;;;;;;5.80;3.80;;;;;;;-147.86;100.00;-17609.17;104845;1266;72440;-47
2024/01/20 02:33:30;;;;;;;5.20;3.20;;;;;;;-147.86;100.00;-17609.17;104862;1265;64058;-48
2024/01/20 02:35:58;;;;;;;3.80;2.30;;;;;;;-147.86;100.00;-17609.17;104841;1266;71375;-47
2024/01/20 02:38:27;;;;;;;5.50;4.00;;;;;;;-147.86;100.00;-17609.17;104928;1269;59782;-46
2024/01/20 02:40:54;;;;;;;8.30;2.90;;;;;;;-147.86;100.00;-17609.17;104901;1264;60047;-47
2024/01/20 02:43:22;;;;;;;6.40;3.20;;;;;;;-147.86;100.00;-17609.17;104817;1266;71859;-47
2024/01/20 02:45:50;;;;;;;6.40;3.90;;;;;;;-147.86;100.00;-17609.17;104839;1271;64060;-47
2024/01/20 02:48:18;;;;;;;5.30;3.70;;;;;;;-147.86;100.00;-17609.17;104839;1271;72640;-47
2024/01/20 03:46:36;;;;;;;11.60;4.90;;;;;;;-147.86;100.00;-17609.17;102599;1291;601228;-49
2024/01/20 03:49:03;;;;;;;9.10;5.20;;;;;;;-147.86;100.00;-17609.17;104807;1266;60870;-48
2024/01/20 03:51:32;;;;;;;10.60;5.20;;;;;;;-147.86;100.00;-17609.17;104812;1270;59280;-47
2024/01/20 03:54:01;;;;;;;5.90;4.50;;;;;;;-147.86;100.00;-17609.17;104839;1265;71426;-48
2024/01/20 03:56:29;;;;;;;10.80;4.90;;;;;;;-147.86;100.00;-17609.17;104821;1271;63985;-46
2024/01/20 03:58:59;;;;;;;10.10;5.20;;;;;;;-147.86;100.00;-17609.17;104891;1271;70987;-48
2024/01/20 04:01:26;;;;;;;8.10;3.90;;;;;;;-147.86;100.00;-17609.17;104905;1269;200725;-48
2024/01/20 04:03:54;;;;;;;5.90;4.00;;;;;;;-147.86;100.00;-17609.17;105034;1264;59330;-48
2024/01/20 04:06:22;;;;;;;7.90;4.10;;;;;;;-147.86;100.00;-17609.17;104975;1264;70973;-48
2024/01/20 04:46:06;;;;;;;;;;;;;;;-147.86;100.00;-17609.17;102929;1292;600991;-48
2024/01/20 04:48:34;;;;;;;4.40;3.00;;;;;;;-147.86;100.00;-17609.17;105168;1268;59647;-48
2024/01/20 04:51:02;;;;;;;4.40;3.00;;;;;;;-147.86;100.00;-17609.17;105030;1267;59278;-46
2024/01/20 04:53:30;;;;;;;2.80;2.60;;;;;;;-147.86;100.00;-17609.17;105102;1264;71908;-47
2024/01/20 04:55:58;;;;;;;5.20;3.20;;;;;;;-147.86;100.00;-17609.17;104997;1264;63999;-49
2024/01/20 04:58:26;;;;;;;5.60;2.40;;;;;;;-147.86;100.00;-17609.17;105012;1264;72733;-48
2024/01/20 05:00:53;;;;;;;4.80;2.90;;;;;;;-147.86;100.00;-17609.17;105046;1266;289939;-48
2024/01/20 05:03:21;;;;;;;6.90;3.30;;;;;;;-147.86;100.00;-17609.17;105261;1266;59402;-48
2024/01/20 05:05:49;;;;;;;4.80;2.90;;;;;;;-147.86;100.00;-17609.17;105228;1261;70752;-48
2024/01/20 05:08:17;;;;;;;2.70;2.20;;;;;;;-147.86;100.00;-17609.17;105204;1266;65106;-48
2024/01/20 05:10:45;;;;;;;6.10;2.80;;;;;;;-147.86;100.00;-17609.17;105256;1264;71408;-48
2024/01/20 05:13:13;;;;;;;6.00;3.40;;;;;;;-147.86;100.00;-17609.17;105207;1264;60860;-48
2024/01/20 05:15:41;;;;;;;4.20;3.00;;;;;;;-147.86;100.00;-17609.17;105212;1266;59595;-48
2024/01/20 05:18:09;;;;;;;3.90;2.60;;;;;;;-147.86;100.00;-17609.17;105221;1260;72526;-48
2024/01/20 05:20:37;;;;;;;4.90;3.40;;;;;;;-147.86;100.00;-17609.17;105204;1261;63909;-49
2024/01/20 05:23:05;;;;;;;6.90;3.00;;;;;;;-147.86;100.00;-17609.17;105240;1261;72660;-48
2024/01/20 05:25:33;;;;;;;4.90;3.00;;;;;;;-147.86;100.00;-17609.17;105202;1265;59625;-48
2024/01/20 05:28:01;;;;;;;5.90;2.80;;;;;;;-147.86;100.00;-17609.17;105261;1266;59656;-49
2024/01/20 05:30:28;;;;;;;3.00;2.80;;;;;;;-147.86;100.00;-17609.17;105234;1261;71465;-48
2024/01/20 05:32:56;;;;;;;3.20;2.70;;;;;;;-147.86;100.00;-17609.17;105234;1266;64013;-47
2024/01/20 05:35:24;;;;;;;4.50;2.80;;;;;;;-147.86;100.00;-17609.17;105238;1262;71415;-47
2024/01/20 05:37:52;;;;;;;4.20;2.60;;;;;;;-147.86;100.00;-17609.17;105214;1264;59749;-48
2024/01/20 05:40:20;;;;;;;4.40;3.40;;;;;;;-147.86;100.00;-17609.17;105211;1261;59750;-47
2024/01/20 05:42:48;;;;;;;5.40;3.10;;;;;;;-147.86;100.00;-17609.17;105257;1261;71775;-48
2024/01/20 05:45:15;;;;;;;5.40;2.80;;;;;;;-147.86;100.00;-17609.17;105191;1261;63544;-46
2024/01/20 05:47:44;;;;;;;4.50;3.50;;;;;;;-147.86;100.00;-17609.17;105165;1264;71336;-46
2024/01/20 05:50:11;;;;;;;7.50;3.40;;;;;;;-147.86;100.00;-17609.17;105195;1268;60881;-47
2024/01/20 05:52:40;;;;;;;5.20;3.30;;;;;;;-147.86;100.00;-17609.17;105187;1261;59561;-47
2024/01/20 05:55:08;;;;;;;6.20;3.00;;;;;;;-147.86;100.00;-17609.17;105173;1261;72662;-48
2024/01/20 05:57:36;;;;;;;4.50;3.40;;;;;;;-147.86;100.00;-17609.17;105184;1264;65249;-47
2024/01/20 06:00:09;;;;;;;3.40;2.90;;;;;;;-147.86;100.00;-17609.17;105182;1266;71354;-47
2024/01/20 06:02:37;;;;;;;3.60;2.90;;;;;;;-147.86;100.00;-17609.17;105182;1266;59780;-48
2024/01/20 06:05:04;;;;;;;3.70;2.80;;;;;;;-147.86;100.00;-17609.17;105124;1269;59720;-47
2024/01/20 06:07:32;;;;;;;3.30;2.90;;;;;;;-147.86;100.00;-17609.17;105132;1262;73025;-47
2024/01/20 06:10:00;;;;;;;3.20;2.70;;;;;;;-147.86;100.00;-17609.17;105174;1264;63921;-48
2024/01/20 06:12:27;;;;;;;4.00;2.50;;;;;;;-147.86;100.00;-17609.17;105368;1264;71441;-48
2024/01/20 06:14:55;;;;;;;2.00;1.90;;;;;;;-147.86;100.00;-17609.17;105259;1266;60833;-47
2024/01/20 06:17:23;;;;;;;4.00;2.30;;;;;;;-147.86;100.00;-17609.17;105221;1265;59575;-47
2024/01/20 06:19:52;;;;;;;5.90;2.40;;;;;;;-147.86;100.00;-17609.17;105315;1261;71844;-48
2024/01/20 06:22:20;;;;;;;3.10;1.90;;;;;;;-147.86;100.00;-17609.17;105266;1261;65288;-48
2024/01/20 06:24:48;;;;;;;2.40;1.80;;;;;;;-147.86;100.00;-17609.17;105286;1261;72626;-48
2024/01/20 06:27:16;;;;;;;2.40;1.80;;;;;;;-147.86;100.00;-17609.17;105230;1261;59794;-47
2024/01/20 06:29:44;;;;;;;2.10;2.00;;;;;;;-147.86;100.00;-17609.17;105253;1264;59557;-49
2024/01/20 06:32:12;;;;;;;3.50;1.40;;;;;;;-147.86;100.00;-17609.17;105389;1261;72765;-48
2024/01/20 06:34:40;;;;;;;1.30;1.00;;;;;;;-147.86;100.00;-17609.17;105298;1265;63173;-48
2024/01/20 06:45:14;;;;;;;;;;;;;;;-147.86;100.00;-17609.17;102665;1293;600734;-49
2024/01/20 06:47:42;;;;;;;2.10;1.30;;;;;;;-147.86;100.00;-17609.17;104916;1268;60352;-47
2024/01/20 06:50:12;;;;;;;1.90;1.00;;;;;;;-147.86;100.00;-17609.17;104973;1266;59402;-48
2024/01/20 06:52:40;;;;;;;0.90;0.90;;;;;;;-147.86;100.00;-17609.17;104904;1271;70762;-46
2024/01/20 07:46:36;;;;;;;6.00;3.40;;;;;;;-147.86;100.00;-17609.17;102834;1289;600936;-47
2024/01/20 08:45:28;;;;;;;;;;;;;;;-147.86;100.00;-17609.17;102779;1290;600977;-49
2024/01/20 08:47:56;;;;;;;23.40;12.00;;;;;;;-147.86;100.00;-17609.17;105178;1268;59591;-47
2024/01/20 08:50:24;;;;;;;25.30;11.90;;;;;;;-147.86;100.00;-17609.17;105008;1269;59494;-46
2024/01/20 08:52:52;;;;;;;20.40;11.80;;;;;;;-147.86;100.00;-17609.17;105009;1269;72218;-49
2024/01/20 08:55:20;;;;;;;26.30;12.30;;;;;;;-147.86;100.00;-17609.17;105029;1269;64482;-47
2024/01/20 08:57:48;;;;;;;28.40;13.20;;;;;;;-147.86;100.00;-17609.17;105050;1270;72594;-47
2024/01/20 09:00:16;;;;;;;26.00;12.00;;;;;;;-147.86;100.00;-17609.17;105072;1264;222754;-46
2024/01/20 09:02:44;;;;;;;19.30;11.40;;;;;;;-147.86;100.00;-17609.17;105222;1266;59593;-45
2024/01/20 09:05:13;;;;;;;26.10;12.00;;;;;;;-147.86;100.00;-17609.17;105194;1261;70964;-46
2024/01/20 09:07:41;;;;;;;27.50;11.50;;;;;;;-147.86;100.00;-17609.17;105206;1266;63924;-48
2024/01/20 09:10:09;;;;;;;31.00;14.00;;;;;;;-147.86;100.00;-17609.17;105201;1267;71122;-47
2024/01/20 09:12:37;;;;;;;27.10;13.60;;;;;;;-147.86;100.00;-17609.17;105216;1267;60904;-46
2024/01/20 09:15:05;;;;;;;25.40;13.60;;;;;;;-147.86;100.00;-17609.17;105204;1267;60354;-47
2024/01/20 09:17:34;;;;;;;29.60;15.30;;;;;;;-147.86;100.00;-17609.17;105240;1267;72986;-47
2024/01/20 09:20:02;;;;;;;29.50;12.70;;;;;;;-147.86;100.00;-17609.17;105242;1270;64625;-48
2024/01/20 09:22:30;;;;;;;30.30;15.80;;;;;;;-147.86;100.00;-17609.17;105105;1264;71446;-47
2024/01/20 09:24:58;;;;;;;28.80;12.90;;;;;;;-147.86;100.00;-17609.17;105212;1264;59762;-46
2024/01/20 09:27:27;;;;;;;32.90;14.30;;;;;;;-147.86;100.00;-17609.17;105239;1264;59693;-48
2024/01/20 09:29:56;;;;;;;28.20;14.30;;;;;;;-147.86;100.00;-17609.17;105244;1264;71762;-48
2024/01/20 09:32:26;;;;;;;32.20;14.40;;;;;;;-147.86;100.00;-17609.17;105191;1271;63896;-47
2024/01/20 09:34:53;;;;;;;25.90;10.80;;;;;;;-147.86;100.00;-17609.17;105225;1263;71695;-46
2024/01/20 09:37:21;;;;;;;24.80;12.00;;;;;;;-147.86;100.00;-17609.17;105166;1270;59930;-45
2024/01/20 09:39:50;;;;;;;28.60;12.90;;;;;;;-147.86;100.00;-17609.17;105216;1266;59733;-47
2024/01/20 09:42:18;;;;;;;28.30;13.20;;;;;;;-147.86;100.00;-17609.17;105178;1262;71777;-48
2024/01/20 09:44:46;;;;;;;31.20;13.10;;;;;;;-147.86;100.00;-17609.17;105211;1268;65179;-49
2024/01/20 09:47:13;;;;;;;24.20;11.30;;;;;;;-147.86;100.00;-17609.17;105178;1268;71445;-47
2024/01/20 09:49:41;;;;;;;22.50;11.00;;;;;;;-147.86;100.00;-17609.17;105225;1268;60216;-47
2024/01/20 09:52:16;;;;;;;30.50;11.10;;;;;;;-147.86;100.00;-17609.17;105205;1268;59761;-47
2024/01/20 09:55:08;;;;;;;21.50;9.70;;;;;;;-147.86;100.00;-17609.17;105198;1269;72166;-48
2024/01/20 09:57:37;;;;;;;24.20;11.20;;;;;;;-147.86;100.00;-17609.17;105160;1262;65304;-48
2024/01/20 10:00:05;;;;;;;24.30;11.90;;;;;;;-147.86;100.00;-17609.17;105223;1270;71364;-47
2024/01/20 10:02:40;;;;;;;9.00;6.50;;;;;;;-147.86;100.00;-17609.17;105139;1264;59697;-48
2024/01/20 10:05:09;;;;;;;24.70;10.90;;;;;;;-147.86;100.00;-17609.17;105181;1268;60558;-46
2024/01/20 10:07:37;;;;;;;20.00;10.20;;;;;;;-147.86;100.00;-17609.17;105184;1263;71803;-47
2024/01/20 10:10:06;;;;;;;24.00;11.50;;;;;;;-147.86;100.00;-17609.17;105126;1269;63956;-47
2024/01/20 10:12:34;;;;;;;20.50;10.50;;;;;;;-147.86;100.00;-17609.17;105160;1267;72684;-46
2024/01/20 10:15:03;;;;;;;19.70;11.20;;;;;;;-147.86;100.00;-17609.17;105179;1270;59812;-46
2024/01/20 10:17:38;;;;;;;29.30;11.70;;;;;;;-147.86;100.00;-17609.17;105078;1264;59988;-48
2024/01/20 10:20:07;;;;;;;23.50;12.80;;;;;;;-147.86;100.00;-17609.17;104844;1263;72811;-48
2024/01/20 10:22:34;;;;;;;19.70;11.30;;;;;;;-147.86;100.00;-17609.17;105049;1269;66387;-47
2024/01/20 10:25:05;;;;;;;22.20;11.70;;;;;;;-147.86;100.00;-17609.17;105206;1268;74944;-47
2024/01/20 10:27:34;;;;;;;18.30;10.20;;;;;;;-147.86;100.00;-17609.17;105000;1279;60373;-49
2024/01/20 10:30:02;;;;;;;21.30;11.70;;;;;;;-147.86;100.00;-17609.17;105181;1264;60117;-46
2024/01/20 10:32:30;;;;;;;24.50;11.80;;;;;;;-147.86;100.00;-17609.17;105197;1277;75750;-48
2024/01/20 10:35:18;;;;;;;18.80;10.50;;;;;;;-147.86;100.00;-17609.17;105138;1269;67249;-47
2024/01/20 10:37:49;;;;;;;17.80;10.40;;;;;;;-147.86;100.00;-17609.17;105133;1268;72905;-48
2024/01/20 10:40:17;;;;;;;20.80;10.70;;;;;;;-147.86;100.00;-17609.17;105199;1269;59714;-48
2024/01/20 10:42:45;;;;;;;17.70;8.80;;;;;;;-147.86;100.00;-17609.17;105579;1263;60089;-48
2024/01/20 10:45:16;;;;;;;20.50;11.60;;;;;;;-147.86;100.00;-17609.17;105632;1259;71742;-48
2024/01/20 10:48:16;;;;;;;19.60;10.20;;;;;;;-147.86;100.00;-17609.17;105641;1261;65131;-47
2024/01/20 10:50:46;;;;;;;22.60;11.60;;;;;;;-147.86;100.00;-17609.17;105569;1260;75021;-46
2024/01/20 10:53:14;;;;;;;20.70;10.40;;;;;;;-147.86;100.00;-17609.17;105624;1263;60743;-47
2024/01/20 10:57:10;;;;;;;;;;;;;;;-147.86;100.00;-17609.17;102680;1293;600448;-48
2024/01/20 10:59:41;;;;;;;18.60;9.60;;;;;;;-147.86;100.00;-17609.17;104902;1266;60045;-48
2024/01/20 11:02:10;;;;;;;17.40;8.40;;;;;;;-147.86;100.00;-17609.17;104913;1265;62329;-47
2024/01/20 11:04:43;;;;;;;12.80;7.80;;;;;;;-147.86;100.00;-17609.17;104822;1266;71117;-48
2024/01/20 11:07:12;;;;;;;16.80;9.00;;;;;;;-147.86;100.00;-17609.17;104927;1265;64457;-47
2024/01/20 11:09:40;;;;;;;18.70;9.50;;;;;;;-147.86;100.00;-17609.17;105329;1262;223823;-47
2024/01/20 11:12:08;;;;;;;20.10;9.80;;;;;;;-147.86;100.00;-17609.17;105602;1258;60897;-48
2024/01/20 11:14:36;;;;;;;18.30;9.60;;;;;;;-147.86;100.00;-17609.17;105608;1254;59969;-47
2024/01/20 11:17:11;;;;;;;19.20;9.80;;;;;;;-147.86;100.00;-17609.17;105600;1259;70444;-46
2024/01/20 11:19:39;;;;;;;;;;;;;;;-147.86;100.00;-17609.17;105648;1260;67258;-47
2024/01/20 11:22:33;;;;;;;19.40;9.20;;;;;;;-147.86;100.00;-17609.17;105599;1254;72801;-49
2024/01/20 11:25:07;;;;;;;16.20;9.70;;;;;;;-147.86;100.00;-17609.17;105669;1256;59507;-48
2024/01/20 11:27:45;;;;;;;17.90;9.70;;;;;;;-147.86;100.00;-17609.17;105650;1259;59644;-47
2024/01/20 11:30:14;;;;;;;19.10;10.50;;;;;;;-147.86;100.00;-17609.17;105630;1259;73100;-48
2024/01/20 11:32:44;;;;;;;15.50;9.60;;;;;;;-147.86;100.00;-17609.17;105653;1254;64149;-48
2024/01/20 11:35:12;;;;;;;23.20;9.10;;;;;;;-147.86;100.00;-17609.17;105670;1254;72680;-49
2024/01/20 11:37:40;;;;;;;15.60;7.20;;;;;;;-147.86;100.00;-17609.17;105634;1257;59708;-47
2024/01/20 11:40:09;;;;;;;20.50;8.60;;;;;;;-147.86;100.00;-17609.17;105619;1254;60393;-48
2024/01/20 11:42:38;;;;;;;20.20;11.50;;;;;;;-147.86;100.00;-17609.17;105634;1256;73013;-48
2024/01/20 11:45:06;;;;;;;22.60;11.70;;;;;;;-147.86;100.00;-17609.17;105567;1257;62939;-49
2024/01/20 11:47:34;;;;;;;16.90;8.30;;;;;;;-147.86;100.00;-17609.17;105544;1258;74036;-47
2024/01/20 11:50:02;;;;;;;21.40;10.80;;;;;;;-147.86;100.00;-17609.17;105621;1257;60404;-49
2024/01/20 11:52:31;;;;;;;20.80;10.60;;;;;;;-147.86;100.00;-17609.17;105552;1261;59657;-48
2024/01/20 11:54:58;;;;;;;24.10;11.90;;;;;;;-147.86;100.00;-17609.17;105573;1259;73918;-48
2024/01/20 11:57:27;;;;;;;15.70;8.00;;;;;;;-147.86;100.00;-17609.17;105527;1256;65598;-49
2024/01/20 11:59:55;;;;;;;27.40;12.00;;;;;;;-147.86;100.00;-17609.17;105554;1260;71335;-47
2024/01/20 12:02:22;;;;;;;17.90;9.60;;;;;;;-147.86;100.00;-17609.17;105506;1260;60858;-47
2024/01/20 12:04:50;;;;;;;24.00;11.50;;;;;;;-147.86;100.00;-17609.17;105554;1260;59594;-50
2024/01/20 12:07:26;;;;;;;;;;;;;;;-147.86;100.00;-17609.17;105552;1257;71776;-49
2024/01/20 12:09:54;;;;;;;25.10;12.20;;;;;;;-147.86;100.00;-17609.17;105529;1257;65144;-48
2024/01/20 12:12:22;;;;;;;26.40;11.70;;;;;;;-147.86;100.00;-17609.17;105509;1257;70751;-48
2024/01/20 12:14:51;;;;;;;29.00;13.30;;;;;;;-147.86;100.00;-17609.17;105583;1256;60425;-48
2024/01/20 12:17:22;;;;;;;31.30;14.30;;;;;;;-147.86;100.00;-17609.17;105530;1256;60307;-47
2024/01/20 12:19:50;;;;;;;25.90;12.90;;;;;;;-147.86;100.00;-17609.17;105580;1256;72869;-49
2024/01/20 12:22:18;;;;;;;28.60;13.60;;;;;;;-147.86;100.00;-17609.17;105522;1261;65783;-48
2024/01/20 12:24:47;;;;;;;26.80;13.50;;;;;;;-147.86;100.00;-17609.17;105523;1261;71395;-48
2024/01/20 12:27:15;;;;;;;29.70;13.00;;;;;;;-147.86;100.00;-17609.17;105557;1260;59763;-48
2024/01/20 12:29:43;;;;;;;26.80;13.60;;;;;;;-147.86;100.00;-17609.17;105511;1263;61168;-47
2024/01/20 12:32:11;;;;;;;32.80;15.30;;;;;;;-147.86;100.00;-17609.17;105524;1257;71840;-48
2024/01/20 12:34:39;;;;;;;29.20;14.50;;;;;;;-147.86;100.00;-17609.17;105583;1260;65400;-47
2024/01/20 12:37:06;;;;;;;33.00;16.00;;;;;;;-147.86;100.00;-17609.17;105479;1257;71631;-48
2024/01/20 12:39:35;;;;;;;24.80;12.30;;;;;;;-147.86;100.00;-17609.17;105569;1261;60894;-48
2024/01/20 12:42:04;;;;;;;16.60;8.00;;;;;;;-147.86;100.00;-17609.17;105515;1262;59563;-47
2024/01/20 12:44:32;;;;;;;15.90;9.20;;;;;;;-147.86;100.00;-17609.17;105553;1256;71766;-48
2024/01/20 12:46:59;;;;;;;21.20;9.00;;;;;;;-147.86;100.00;-17609.17;105548;1258;63936;-48
2024/01/20 12:49:27;;;;;;;12.60;7.70;;;;;;;-147.86;100.00;-17609.17;105592;1261;72669;-48
2024/01/20 12:51:55;;;;;;;15.80;7.00;;;;;;;-147.86;100.00;-17609.17;105554;1260;59763;-45
2024/01/20 12:54:24;;;;;;;10.10;6.60;;;;;;;-147.86;100.00;-17609.17;105554;1256;61279;-47
2024/01/20 12:56:51;;;;;;;12.40;6.20;;;;;;;-147.86;100.00;-17609.17;105282;1264;73746;-47
2024/01/20 12:59:19;;;;;;;15.60;8.10;;;;;;;-147.86;100.00;-17609.17;105569;1259;65524;-47
2024/01/20 13:01:48;;;;;;;15.80;7.60;;;;;;;-147.86;100.00;-17609.17;105503;1260;70091;-49
2024/01/20 13:04:17;;;;;;;14.60;7.40;;;;;;;-147.86;100.00;-17609.17;105557;1262;59584;-47
2024/01/20 13:06:44;;;;;;;11.20;6.40;;;;;;;-147.86;100.00;-17609.17;105590;1256;59613;-46
2024/01/20 13:09:12;;;;;;;16.30;7.30;;;;;;;-147.86;100.00;-17609.17;105545;1256;71987;-47
2024/01/20 13:11:41;;;;;;;17.90;6.50;;;;;;;-147.86;100.00;-17609.17;105498;1261;65215;-48
2024/01/20 13:14:08;;;;;;;20.30;8.20;;;;;;;-147.86;100.00;-17609.17;105520;1260;71344;-49
2024/01/20 13:16:36;;;;;;;13.80;6.70;;;;;;;-147.86;100.00;-17609.17;105541;1256;59945;-48
2024/01/20 13:19:04;;;;;;;15.50;8.50;;;;;;;-147.86;100.00;-17609.17;105565;1256;59843;-48
2024/01/20 13:21:32;;;;;;;14.10;8.50;;;;;;;-147.86;100.00;-17609.17;105506;1256;71995;-48
2024/01/20 13:24:00;;;;;;;17.90;8.10;;;;;;;-147.86;100.00;-17609.17;105563;1261;65079;-48
2024/01/20 13:26:27;;;;;;;13.80;7.80;;;;;;;-147.86;100.00;-17609.17;105507;1261;72609;-48
2024/01/20 13:28:55;;;;;;;14.70;7.70;;;;;;;-147.86;100.00;-17609.17;105550;1257;59753;-48
2024/01/20 13:31:23;;;;;;;15.20;8.00;;;;;;;-147.86;100.00;-17609.17;105550;1256;59842;-49
2024/01/20 13:33:50;;;;;;;16.80;8.30;;;;;;;-147.86;100.00;-17609.17;105540;1256;73977;-48
2024/01/20 13:36:19;;;;;;;12.60;6.80;;;;;;;-147.86;100.00;-17609.17;105582;1256;63922;-47
2024/01/20 13:38:47;;;;;;;14.70;7.40;;;;;;;-147.86;100.00;-17609.17;105602;1260;72609;-47
2024/01/20 13:41:15;;;;;;;15.20;6.70;;;;;;;-147.86;100.00;-17609.17;105527;1259;61958;-47
2024/01/20 13:43:43;;;;;;;12.30;7.00;;;;;;;-147.86;100.00;-17609.17;105552;1260;59578;-48
2024/01/20 13:46:11;;;;;;;14.20;7.40;;;;;;;-147.86;100.00;-17609.17;105519;1260;73362;-47
2024/01/20 13:48:39;;;;;;;14.60;7.40;;;;;;;-147.86;100.00;-17609.17;105542;1257;65290;-47
2024/01/20 13:51:06;;;;;;;11.50;7.20;;;;;;;-147.86;100.00;-17609.17;105508;1260;72707;-48
2024/01/20 13:53:34;;;;;;;11.10;6.50;;;;;;;-147.86;100.00;-17609.17;105503;1256;61620;-49
2024/01/20 13:56:02;;;;;;;11.70;6.60;;;;;;;-147.86;100.00;-17609.17;105533;1256;59845;-47
2024/01/20 13:58:30;;;;;;;14.50;6.80;;;;;;;-147.86;100.00;-17609.17;105496;1256;72978;-47
2024/01/20 14:00:57;;;;;;;10.90;6.70;;;;;;;-147.86;100.00;-17609.17;105557;1257;64042;-47
2024/01/20 14:03:29;;;;;;;14.80;7.60;;;;;;;-147.86;100.00;-17609.17;105526;1260;72053;-47
2024/01/20 14:05:57;;;;;;;14.50;6.80;;;;;;;-147.86;100.00;-17609.17;105524;1258;59715;-47
2024/01/20 14:08:25;;;;;;;15.20;8.30;;;;;;;-147.86;100.00;-17609.17;105541;1256;60372;-47
2024/01/20 14:10:53;;;;;;;14.10;6.80;;;;;;;-147.86;100.00;-17609.17;105525;1256;73389;-46
2024/01/20 14:13:21;;;;;;;14.30;8.30;;;;;;;-147.86;100.00;-17609.17;105535;1259;65913;-49
2024/01/20 14:15:49;;;;;;;18.60;8.20;;;;;;;-147.86;100.00;-17609.17;105566;1258;71490;-46
2024/01/20 14:18:17;;;;;;;13.50;7.90;;;;;;;-147.86;100.00;-17609.17;105527;1260;59810;-47
2024/01/20 14:20:45;;;;;;;15.00;7.30;;;;;;;-147.86;100.00;-17609.17;105667;1253;60494;-46
2024/01/20 14:23:12;;;;;;;14.80;7.50;;;;;;;-147.86;100.00;-17609.17;105622;1259;74749;-47
2024/01/20 14:25:40;;;;;;;13.00;7.00;;;;;;;-147.86;100.00;-17609.17;105659;1256;63999;-46
2024/01/20 14:28:08;;;;;;;15.10;7.80;;;;;;;-147.86;100.00;-17609.17;105707;1257;71463;-46
2024/01/20 14:30:36;;;;;;;17.50;7.50;;;;;;;-147.86;100.00;-17609.17;105630;1254;60484;-45
2024/01/20 14:33:04;;;;;;;12.80;6.80;;;;;;;-147.86;100.00;-17609.17;105632;1253;60041;-47
2024/01/20 14:35:32;;;;;;;13.70;7.40;;;;;;;-147.86;100.00;-17609.17;105675;1254;71695;-47
2024/01/20 14:38:00;;;;;;;12.50;7.00;;;;;;;-147.86;100.00;-17609.17;105652;1259;66531;-45
2024/01/20 14:40:27;;;;;;;12.30;6.70;;;;;;;-147.86;100.00;-17609.17;105670;1254;72670;-46
2024/01/20 14:42:55;;;;;;;10.20;6.10;;;;;;;-147.86;100.00;-17609.17;105632;1254;60221;-46
2024/01/20 14:45:23;;;;;;;11.60;6.20;;;;;;;-147.86;100.00;-17609.17;105668;1254;60298;-46
2024/01/20 14:47:52;;;;;;;12.10;6.20;;;;;;;-147.86;100.00;-17609.17;105638;1254;72990;-46
2024/01/20 14:50:19;;;;;;;11.80;6.70;;;;;;;-147.86;100.00;-17609.17;105676;1254;63906;-47
2024/01/20 14:52:47;;;;;;;12.10;6.30;;;;;;;-147.86;100.00;-17609.17;105660;1259;71471;-47
2024/01/20 14:55:15;;;;;;;9.10;5.70;;;;;;;-147.86;100.00;-17609.17;105701;1256;59751;-47
2024/01/20 14:57:44;;;;;;;13.80;7.00;;;;;;;-147.86;100.00;-17609.17;105740;1259;59741;-47
2024/01/20 15:00:13;;;;;;;10.50;6.60;;;;;;;-147.86;100.00;-17609.17;105724;1259;73113;-47